createdAt,value
2023-02-22T00:01:07.627Z,100117.59
2023-02-22T00:03:35.075Z,100115.25
2023-02-22T00:06:05.380Z,100123.13
2023-02-22T00:08:37.561Z,100119.56
2023-02-22T00:11:08.866Z,100121.06
2023-02-22T00:13:38.588Z,100125.47
2023-02-22T00:16:06.666Z,100122.63
2023-02-22T00:18:33.742Z,100109.03
2023-02-22T00:21:01.467Z,100116.88
2023-02-22T00:23:30.769Z,100116.50
2023-02-22T00:26:00.029Z,100121.44
2023-02-22T00:28:27.905Z,100119.47
2023-02-22T00:30:55.172Z,100120.69
2023-02-22T00:33:23.262Z,100125.00
2023-02-22T00:35:50.453Z,100133.19
2023-02-22T00:38:19.693Z,100133.84
2023-02-22T00:40:46.782Z,100134.72
2023-02-22T00:43:14.471Z,100140.66
2023-02-22T00:45:42.195Z,100142.72
2023-02-22T00:48:10.409Z,100148.69
2023-02-22T00:50:37.907Z,100141.34
2023-02-22T00:53:06.061Z,100146.34
2023-02-22T00:55:36.352Z,100163.03
2023-02-22T00:58:05.599Z,100157.88
2023-02-22T01:00:39.844Z,100157.81
2023-02-22T01:03:10.756Z,100153.47
2023-02-22T01:05:38.437Z,100169.00
2023-02-22T01:08:08.141Z,100174.41
2023-02-22T01:10:36.604Z,100176.88
2023-02-22T01:13:09.392Z,100168.94
2023-02-22T01:15:39.787Z,100171.72
2023-02-22T01:18:08.004Z,100180.97
2023-02-22T01:20:35.800Z,100188.75
2023-02-22T01:23:07.061Z,100193.31
2023-02-22T01:25:35.895Z,100197.41
2023-02-22T01:28:05.797Z,100199.78
2023-02-22T01:30:35.824Z,100192.91
2023-02-22T01:33:06.140Z,100208.50
2023-02-22T01:35:36.941Z,100204.13
2023-02-22T01:38:04.253Z,100214.00
2023-02-22T01:40:38.068Z,100202.97
2023-02-22T01:43:29.916Z,100210.31
2023-02-22T01:46:21.558Z,100213.75
2023-02-22T01:49:01.083Z,100201.56
2023-02-22T01:51:37.887Z,100199.59
2023-02-22T01:54:16.621Z,100205.91
2023-02-22T01:57:06.213Z,100212.03
2023-02-22T01:59:40.590Z,100206.06
2023-02-22T02:02:07.800Z,100210.16
2023-02-22T02:04:36.353Z,100214.66
2023-02-22T02:07:07.813Z,100213.84
2023-02-22T02:10:04.530Z,100216.63
2023-02-22T02:12:36.185Z,100225.13
2023-02-22T02:15:33.750Z,100222.19
2023-02-22T02:18:09.302Z,100228.25
2023-02-22T02:21:00.875Z,100225.69
2023-02-22T02:24:09.301Z,100226.00
2023-02-22T02:27:14.491Z,100227.00
2023-02-22T02:30:16.790Z,100230.38
2023-02-22T02:32:56.020Z,100229.94
2023-02-22T02:35:48.648Z,100237.53
2023-02-22T02:38:32.772Z,100235.09
2023-02-22T02:41:16.709Z,100226.69
2023-02-22T02:44:02.470Z,100239.91
2023-02-22T02:46:56.417Z,100246.00
2023-02-22T02:49:37.176Z,100247.69
2023-02-22T02:52:05.963Z,100248.44
2023-02-22T02:54:34.260Z,100254.03
2023-02-22T02:57:03.299Z,100248.44
2023-02-22T02:59:34.768Z,100254.16
2023-02-22T03:02:34.043Z,100258.38
2023-02-22T03:05:57.811Z,100259.72
2023-02-22T03:08:50.481Z,100266.25
2023-02-22T03:11:28.636Z,100270.44
2023-02-22T03:14:20.441Z,100264.31
2023-02-22T03:17:02.486Z,100270.16
2023-02-22T03:19:58.523Z,100262.50
2023-02-22T03:22:33.957Z,100267.00
2023-02-22T03:25:22.666Z,100280.56
2023-02-22T03:28:02.923Z,100274.66
2023-02-22T03:30:49.326Z,100282.03
2023-02-22T03:33:33.669Z,100286.13
2023-02-22T03:36:11.601Z,100287.06
2023-02-22T03:38:41.846Z,100279.09
2023-02-22T03:41:11.165Z,100290.63
2023-02-22T03:43:49.234Z,100297.91
2023-02-22T03:46:19.447Z,100288.56
2023-02-22T03:49:09.835Z,100293.47
2023-02-22T03:51:37.507Z,100301.56
2023-02-22T03:54:06.067Z,100306.72
2023-02-22T03:56:47.207Z,100306.25
2023-02-22T03:59:14.782Z,100305.50
2023-02-22T04:01:42.233Z,100301.28
2023-02-22T04:04:09.287Z,100306.91
2023-02-22T04:06:36.411Z,100308.81
2023-02-22T04:09:03.735Z,100316.31
2023-02-22T04:11:30.951Z,100315.34
2023-02-22T04:13:58.444Z,100323.00
2023-02-22T04:16:25.626Z,100314.28
2023-02-22T04:18:52.752Z,100324.00
2023-02-22T04:21:19.865Z,100323.91
2023-02-22T04:23:46.853Z,100327.84
2023-02-22T04:26:14.117Z,100325.00
2023-02-22T04:28:41.112Z,100341.88
2023-02-22T04:31:08.173Z,100340.25
2023-02-22T04:33:35.490Z,100347.31
2023-02-22T04:36:02.555Z,100338.38
2023-02-22T04:38:29.580Z,100343.63
2023-02-22T04:40:56.576Z,100344.78
2023-02-22T04:43:23.589Z,100345.16
2023-02-22T04:45:50.611Z,100338.78
2023-02-22T04:48:17.821Z,100343.31
2023-02-22T04:50:44.840Z,100347.25
2023-02-22T04:53:11.834Z,100346.63
2023-02-22T04:55:38.889Z,100344.53
2023-02-22T04:58:07.100Z,100354.47
2023-02-22T05:00:35.163Z,100358.00
2023-02-22T05:03:02.271Z,100355.41
2023-02-22T05:05:29.697Z,100351.84
2023-02-22T05:07:56.754Z,100357.91
2023-02-22T05:10:24.893Z,100360.06
2023-02-22T05:12:52.024Z,100362.13
2023-02-22T05:15:21.450Z,100368.00
2023-02-22T05:17:48.870Z,100356.56
2023-02-22T05:20:29.881Z,100363.06
2023-02-22T05:22:59.828Z,100368.09
2023-02-22T05:25:27.719Z,100370.16
2023-02-22T05:28:04.464Z,100371.63
2023-02-22T05:30:36.269Z,100368.75
2023-02-22T05:33:03.359Z,100378.81
2023-02-22T05:35:30.387Z,100384.59
2023-02-22T05:37:59.787Z,100387.03
2023-02-22T05:40:28.669Z,100384.16
2023-02-22T05:42:58.900Z,100396.44
2023-02-22T05:45:28.459Z,100396.97
2023-02-22T05:47:55.622Z,100403.75
2023-02-22T05:50:24.528Z,100401.56
2023-02-22T05:52:52.325Z,100401.56
2023-02-22T05:55:23.070Z,100398.94
2023-02-22T05:57:50.964Z,100396.50
2023-02-22T06:00:29.380Z,100408.44
2023-02-22T06:02:59.344Z,100413.22
2023-02-22T06:05:27.604Z,100410.59
2023-02-22T06:07:55.450Z,100419.44
2023-02-22T06:10:23.364Z,100410.88
2023-02-22T06:12:51.924Z,100427.63
2023-02-22T06:15:20.698Z,100418.97
2023-02-22T06:17:48.807Z,100422.47
2023-02-22T06:20:22.645Z,100435.94
2023-02-22T06:22:51.799Z,100440.78
2023-02-22T06:25:25.136Z,100434.47
2023-02-22T06:27:52.689Z,100443.94
2023-02-22T06:30:24.202Z,100451.78
2023-02-22T06:32:51.498Z,100455.47
2023-02-22T06:35:19.161Z,100457.69
2023-02-22T06:37:46.552Z,100462.19
2023-02-22T06:40:15.000Z,100467.16
2023-02-22T06:42:42.389Z,100466.88
2023-02-22T06:45:10.390Z,100471.72
2023-02-22T06:47:43.977Z,100474.63
2023-02-22T06:50:26.402Z,100472.84
2023-02-22T06:52:53.494Z,100472.38
2023-02-22T06:55:24.156Z,100471.31
2023-02-22T06:57:51.877Z,100468.69
2023-02-22T07:00:21.550Z,100472.09
2023-02-22T07:02:48.961Z,100474.53
2023-02-22T07:05:19.290Z,100482.84
2023-02-22T07:07:48.257Z,100488.22
2023-02-22T07:10:28.825Z,100478.97
2023-02-22T07:12:56.112Z,100489.97
2023-02-22T07:15:26.547Z,100490.03
2023-02-22T07:17:53.938Z,100495.38
2023-02-22T07:20:22.861Z,100502.13
2023-02-22T07:22:50.338Z,100497.34
2023-02-22T07:25:18.368Z,100490.50
2023-02-22T07:27:45.971Z,100491.22
2023-02-22T07:30:32.255Z,100500.50
2023-02-22T07:33:02.800Z,100489.88
2023-02-22T07:35:50.538Z,100499.00
2023-02-22T07:38:19.599Z,100500.63
2023-02-22T07:40:47.013Z,100499.88
2023-02-22T07:43:26.388Z,100495.00
2023-02-22T07:45:59.696Z,100492.81
2023-02-22T07:48:29.376Z,100494.09
2023-02-22T07:50:57.230Z,100507.88
2023-02-22T07:53:30.316Z,100501.16
2023-02-22T07:56:05.887Z,100512.38
2023-02-22T07:58:33.564Z,100502.16
2023-02-22T08:01:04.056Z,100494.97
2023-02-22T08:03:36.863Z,100495.06
2023-02-22T08:06:07.131Z,100504.84
2023-02-22T08:08:34.578Z,100502.31
2023-02-22T08:11:02.392Z,100502.03
2023-02-22T08:13:29.490Z,100522.09
2023-02-22T08:15:57.158Z,100508.09
2023-02-22T08:18:25.814Z,100518.28
2023-02-22T08:20:54.416Z,100514.84
2023-02-22T08:23:25.380Z,100515.59
2023-02-22T08:25:53.192Z,100522.22
2023-02-22T08:28:23.816Z,100512.00
2023-02-22T08:30:52.777Z,100514.19
2023-02-22T08:33:20.602Z,100520.75
2023-02-22T08:35:49.854Z,100522.53
2023-02-22T08:38:28.603Z,100524.75
2023-02-22T08:40:56.440Z,100532.19
2023-02-22T08:43:24.136Z,100525.84
2023-02-22T08:45:52.261Z,100518.88
2023-02-22T08:48:20.562Z,100528.81
2023-02-22T08:50:48.240Z,100533.00
2023-02-22T08:53:16.482Z,100533.16
2023-02-22T08:55:44.518Z,100533.13
2023-02-22T08:58:12.670Z,100539.66
2023-02-22T09:00:41.234Z,100524.00
2023-02-22T09:03:13.259Z,100535.91
2023-02-22T09:05:42.093Z,100541.22
2023-02-22T09:08:09.435Z,100536.78
2023-02-22T09:10:36.512Z,100541.66
2023-02-22T09:13:04.222Z,100534.72
2023-02-22T09:15:33.129Z,100535.41
2023-02-22T09:18:00.490Z,100546.84
2023-02-22T09:20:28.272Z,100546.22
2023-02-22T09:22:56.105Z,100555.53
2023-02-22T09:25:23.359Z,100552.53
2023-02-22T09:27:52.883Z,100556.94
2023-02-22T09:30:35.756Z,100563.34
2023-02-22T09:33:10.130Z,100561.69
2023-02-22T09:35:42.385Z,100570.78
2023-02-22T09:38:11.484Z,100563.09
2023-02-22T09:40:45.978Z,100571.59
2023-02-22T09:43:35.768Z,100571.03
2023-02-22T09:46:30.795Z,100570.16
2023-02-22T09:49:15.586Z,100569.09
2023-02-22T09:51:52.712Z,100565.06
2023-02-22T09:54:36.401Z,100566.34
2023-02-22T09:57:10.737Z,100575.72
2023-02-22T09:59:48.589Z,100573.97
2023-02-22T10:02:26.657Z,100588.00
2023-02-22T10:05:08.638Z,100587.69
2023-02-22T10:07:59.364Z,100591.38
2023-02-22T10:10:37.059Z,100581.84
2023-02-22T10:13:42.190Z,100595.88
2023-02-22T10:16:15.049Z,100601.75
2023-02-22T10:19:03.378Z,100600.16
2023-02-22T10:22:07.864Z,100608.69
2023-02-22T10:25:04.808Z,100598.56
2023-02-22T10:27:44.832Z,100609.31
2023-02-22T10:30:59.203Z,100601.94
2023-02-22T10:33:41.441Z,100607.63
2023-02-22T10:36:21.822Z,100608.69
2023-02-22T10:39:15.102Z,100610.03
2023-02-22T10:41:55.582Z,100598.16
2023-02-22T10:44:22.596Z,100594.81
2023-02-22T10:46:50.557Z,100625.31
2023-02-22T10:49:23.826Z,100618.47
2023-02-22T10:52:02.589Z,100618.13
2023-02-22T10:54:36.485Z,100613.50
2023-02-22T10:57:04.349Z,100607.44
2023-02-22T10:59:37.569Z,100612.78
2023-02-22T11:02:30.309Z,100607.28
2023-02-22T11:05:01.641Z,100606.72
2023-02-22T11:07:31.788Z,100605.22
2023-02-22T11:10:11.052Z,100610.72
2023-02-22T11:12:47.834Z,100604.94
2023-02-22T11:15:18.838Z,100601.13
2023-02-22T11:17:49.185Z,100609.31
2023-02-22T11:20:25.549Z,100607.41
2023-02-22T11:23:01.012Z,100606.38
2023-02-22T11:25:40.104Z,100616.13
2023-02-22T11:28:11.097Z,100613.81
2023-02-22T11:30:38.453Z,100606.84
2023-02-22T11:33:23.681Z,100610.31
2023-02-22T11:35:57.306Z,100620.81
2023-02-22T11:38:34.344Z,100608.31
2023-02-22T11:41:17.904Z,100613.16
2023-02-22T11:43:51.830Z,100609.63
2023-02-22T11:46:23.372Z,100617.50
2023-02-22T11:49:09.107Z,100616.47
2023-02-22T11:51:56.654Z,100614.72
2023-02-22T11:55:00.025Z,100623.53
2023-02-22T11:58:14.922Z,100616.78
2023-02-22T12:01:12.099Z,100621.19
2023-02-22T12:04:22.613Z,100614.78
2023-02-22T12:07:16.928Z,100609.06
2023-02-22T12:10:11.789Z,100611.94
2023-02-22T12:12:51.495Z,100614.03
2023-02-22T12:15:24.101Z,100615.06
2023-02-22T12:18:27.580Z,100609.09
2023-02-22T12:21:01.598Z,100612.28
2023-02-22T12:24:04.165Z,100600.94
2023-02-22T12:26:41.295Z,100606.91
2023-02-22T12:29:26.301Z,100608.00
2023-02-22T12:32:12.148Z,100602.22
2023-02-22T12:35:05.623Z,100612.94
2023-02-22T12:37:45.048Z,100615.06
2023-02-22T12:40:17.070Z,100611.91
2023-02-22T12:42:55.689Z,100624.22
2023-02-22T12:45:36.940Z,100617.84
2023-02-22T12:48:27.699Z,100628.81
2023-02-22T12:51:18.765Z,100620.44
2023-02-22T12:54:12.133Z,100628.53
2023-02-22T12:57:01.203Z,100634.09
2023-02-22T12:59:52.177Z,100637.03
2023-02-22T13:02:48.319Z,100637.06
2023-02-22T13:05:18.261Z,100640.97
2023-02-22T13:08:22.484Z,100655.09
2023-02-22T13:11:42.041Z,100645.13
2023-02-22T13:14:48.115Z,100651.03
2023-02-22T13:17:26.835Z,100655.66
2023-02-22T13:20:28.071Z,100656.72
2023-02-22T13:22:58.082Z,100660.50
2023-02-22T13:25:58.084Z,100661.22
2023-02-22T13:28:47.192Z,100658.09
2023-02-22T13:32:04.936Z,100661.31
2023-02-22T13:35:08.972Z,100659.50
2023-02-22T13:38:33.481Z,100665.63
2023-02-22T13:41:23.610Z,100662.09
2023-02-22T13:44:12.367Z,100666.81
2023-02-22T13:47:36.383Z,100666.53
2023-02-22T13:50:19.268Z,100667.28
2023-02-22T13:52:48.787Z,100667.28
2023-02-22T13:55:28.230Z,100660.00
2023-02-22T13:58:12.826Z,100658.88
2023-02-22T14:00:45.874Z,100667.97
2023-02-22T14:03:15.563Z,100673.13
2023-02-22T14:05:42.666Z,100672.59
2023-02-22T14:08:19.008Z,100676.22
2023-02-22T14:10:59.204Z,100676.75
2023-02-22T14:13:33.259Z,100677.81
2023-02-22T14:16:00.345Z,100685.75
2023-02-22T14:18:33.269Z,100682.03
2023-02-22T14:21:13.404Z,100678.53
2023-02-22T14:23:42.308Z,100679.78
2023-02-22T14:26:29.453Z,100674.19
2023-02-22T14:29:09.521Z,100681.09
2023-02-22T14:31:50.745Z,100667.38
2023-02-22T14:34:41.688Z,100663.06
2023-02-22T14:37:26.960Z,100677.06
2023-02-22T14:40:02.356Z,100672.75
2023-02-22T14:42:33.417Z,100674.94
2023-02-22T14:45:35.938Z,100673.38
2023-02-22T14:48:20.303Z,100677.00
2023-02-22T14:51:19.135Z,100678.88
2023-02-22T14:54:13.354Z,100686.44
2023-02-22T14:57:15.169Z,100686.31
2023-02-22T15:00:08.106Z,100683.78
2023-02-22T15:02:41.570Z,100676.50
2023-02-22T15:05:16.262Z,100686.03
2023-02-22T15:08:02.416Z,100685.84
2023-02-22T15:10:46.613Z,100688.78
2023-02-22T15:13:24.286Z,100689.44
2023-02-22T15:16:04.347Z,100681.59
2023-02-22T15:18:43.304Z,100685.69
2023-02-22T15:21:17.616Z,100701.03
2023-02-22T15:23:54.872Z,100698.53
2023-02-22T15:26:49.006Z,100700.47
2023-02-22T15:29:32.694Z,100699.47
2023-02-22T15:31:59.742Z,100703.84
2023-02-22T15:34:33.384Z,100701.31
2023-02-22T15:37:32.602Z,100704.78
2023-02-22T15:40:16.522Z,100707.56
2023-02-22T15:42:49.407Z,100713.03
2023-02-22T15:45:25.148Z,100713.69
2023-02-22T15:47:58.591Z,100713.72
2023-02-22T15:50:28.256Z,100714.78
2023-02-22T15:52:58.288Z,100716.44
2023-02-22T15:55:29.197Z,100715.72
2023-02-22T15:58:01.722Z,100711.41
2023-02-22T16:00:41.851Z,100716.16
2023-02-22T16:03:19.513Z,100717.25
2023-02-22T16:05:57.082Z,100719.38
2023-02-22T16:08:52.805Z,100720.88
2023-02-22T16:11:30.796Z,100726.78
2023-02-22T16:14:07.303Z,100721.88
2023-02-22T16:16:41.592Z,100728.16
2023-02-22T16:19:32.930Z,100731.84
2023-02-22T16:22:13.268Z,100736.44
2023-02-22T16:24:41.042Z,100744.50
2023-02-22T16:27:20.526Z,100740.56
2023-02-22T16:30:24.072Z,100739.34
2023-02-22T16:32:53.674Z,100732.00
2023-02-22T16:35:21.082Z,100744.75
2023-02-22T16:37:57.448Z,100746.75
2023-02-22T16:40:47.224Z,100749.19
2023-02-22T16:43:23.237Z,100746.22
2023-02-22T16:45:50.294Z,100756.00
2023-02-22T16:48:27.508Z,100751.97
2023-02-22T16:50:59.670Z,100752.69
2023-02-22T16:53:30.671Z,100752.34
2023-02-22T16:56:04.796Z,100757.75
2023-02-22T16:58:39.432Z,100761.47
2023-02-22T17:01:07.232Z,100753.75
2023-02-22T17:03:34.341Z,100760.25
2023-02-22T17:06:01.738Z,100761.84
2023-02-22T17:08:28.737Z,100767.56
2023-02-22T17:10:57.633Z,100767.06
2023-02-22T17:13:27.653Z,100764.63
2023-02-22T17:15:55.247Z,100766.16
2023-02-22T17:18:24.571Z,100762.97
2023-02-22T17:20:52.927Z,100765.91
2023-02-22T17:23:20.738Z,100768.41
2023-02-22T17:25:53.481Z,100760.16
2023-02-22T17:28:23.626Z,100757.84
2023-02-22T17:30:52.266Z,100761.91
2023-02-22T17:33:26.773Z,100756.16
2023-02-22T17:35:56.231Z,100767.72
2023-02-22T17:38:23.772Z,100762.09
2023-02-22T17:40:54.888Z,100760.78
2023-02-22T17:43:22.695Z,100762.69
2023-02-22T17:45:50.180Z,100758.78
2023-02-22T17:48:19.091Z,100763.38
2023-02-22T17:50:47.933Z,100763.22
2023-02-22T17:53:15.742Z,100769.44
2023-02-22T17:55:43.304Z,100754.25
2023-02-22T17:58:14.878Z,100760.97
2023-02-22T18:00:49.316Z,100773.31
2023-02-22T18:03:25.649Z,100772.56
2023-02-22T18:05:59.931Z,100747.72
2023-02-22T18:08:29.393Z,100770.78
2023-02-22T18:10:56.914Z,100773.63
2023-02-22T18:13:27.567Z,100770.09
2023-02-22T18:16:00.905Z,100777.69
2023-02-22T18:18:28.343Z,100775.88
2023-02-22T18:20:59.607Z,100782.09
2023-02-22T18:23:30.120Z,100788.06
2023-02-22T18:26:10.260Z,100786.81
2023-02-22T18:28:39.159Z,100789.56
2023-02-22T18:31:15.220Z,100787.34
2023-02-22T18:33:44.893Z,100786.00
2023-02-22T18:36:13.547Z,100792.91
2023-02-22T18:38:43.235Z,100787.38
2023-02-22T18:41:16.773Z,100796.91
2023-02-22T18:43:44.067Z,100789.41
2023-02-22T18:46:16.153Z,100785.25
2023-02-22T18:48:44.088Z,100796.81
2023-02-22T18:51:14.395Z,100787.56
2023-02-22T18:53:47.691Z,100794.75
2023-02-22T18:56:21.686Z,100789.84
2023-02-22T18:58:54.530Z,100794.19
2023-02-22T19:01:22.177Z,100782.53
2023-02-22T19:03:51.721Z,100783.72
2023-02-22T19:06:21.907Z,100773.75
2023-02-22T19:08:50.667Z,100779.66
2023-02-22T19:11:24.255Z,100773.22
2023-02-22T19:13:56.433Z,100783.84
2023-02-22T19:16:26.146Z,100787.41
2023-02-22T19:18:57.567Z,100767.53
2023-02-22T19:21:27.742Z,100777.13
2023-02-22T19:23:54.889Z,100780.06
2023-02-22T19:26:25.086Z,100786.94
2023-02-22T19:28:58.709Z,100766.81
2023-02-22T19:31:31.594Z,100786.63
2023-02-22T19:34:10.713Z,100784.66
2023-02-22T19:36:47.364Z,100791.28
2023-02-22T19:39:16.739Z,100799.56
2023-02-22T19:41:43.833Z,100793.91
2023-02-22T19:44:11.042Z,100797.53
2023-02-22T19:46:39.246Z,100798.41
2023-02-22T19:49:07.522Z,100802.72
2023-02-22T19:51:34.929Z,100801.94
2023-02-22T19:54:07.584Z,100800.13
2023-02-22T19:56:35.630Z,100806.72
2023-02-22T19:59:13.429Z,100801.78
2023-02-22T20:01:44.380Z,100815.16
2023-02-22T20:04:18.257Z,100812.13
2023-02-22T20:06:48.090Z,100788.56
2023-02-22T20:09:20.315Z,100804.53
2023-02-22T20:11:48.758Z,100810.09
2023-02-22T20:14:20.322Z,100793.00
2023-02-22T20:16:47.605Z,100802.72
2023-02-22T20:19:14.651Z,100805.22
2023-02-22T20:21:41.752Z,100798.22
2023-02-22T20:24:12.139Z,100811.47
2023-02-22T20:26:40.095Z,100803.88
2023-02-22T20:29:09.240Z,100804.91
2023-02-22T20:31:38.593Z,100809.28
2023-02-22T20:34:06.423Z,100815.66
2023-02-22T20:36:36.320Z,100813.34
2023-02-22T20:39:13.330Z,100807.44
2023-02-22T20:41:46.172Z,100811.19
2023-02-22T20:44:17.603Z,100824.03
2023-02-22T20:46:46.279Z,100815.50
2023-02-22T20:49:17.442Z,100809.19
2023-02-22T20:51:46.258Z,100812.03
2023-02-22T20:54:13.668Z,100818.13
2023-02-22T20:56:44.153Z,100816.09
2023-02-22T20:59:14.201Z,100813.50
2023-02-22T21:01:42.348Z,100814.19
2023-02-22T21:04:11.131Z,100803.19
2023-02-22T21:06:39.698Z,100806.25
2023-02-22T21:09:12.489Z,100805.69
2023-02-22T21:11:40.187Z,100803.41
2023-02-22T21:14:08.239Z,100803.09
2023-02-22T21:16:37.398Z,100805.88
2023-02-22T21:19:08.466Z,100801.59
2023-02-22T21:21:36.357Z,100799.53
2023-02-22T21:24:03.490Z,100807.38
2023-02-22T21:26:33.353Z,100812.13
2023-02-22T21:29:04.695Z,100808.03
2023-02-22T21:31:33.596Z,100815.59
2023-02-22T21:34:01.562Z,100813.16
2023-02-22T21:36:29.586Z,100818.38
2023-02-22T21:39:00.876Z,100816.09
2023-02-22T21:41:31.241Z,100815.63
2023-02-22T21:43:59.929Z,100816.44
2023-02-22T21:46:29.519Z,100807.94
2023-02-22T21:48:58.799Z,100824.28
2023-02-22T21:51:32.530Z,100820.03
2023-02-22T21:54:03.254Z,100811.88
2023-02-22T21:56:34.529Z,100814.88
2023-02-22T21:59:05.008Z,100809.41
2023-02-22T22:01:47.259Z,100818.63
2023-02-22T22:04:20.706Z,100814.75
2023-02-22T22:06:51.682Z,100825.03
2023-02-22T22:09:20.333Z,100817.13
2023-02-22T22:11:53.914Z,100816.06
2023-02-22T22:14:24.016Z,100811.31
2023-02-22T22:16:54.031Z,100808.03
2023-02-22T22:19:21.044Z,100816.88
2023-02-22T22:21:50.114Z,100825.75
2023-02-22T22:24:19.943Z,100821.66
2023-02-22T22:26:51.175Z,100822.56
2023-02-22T22:29:19.114Z,100812.69
2023-02-22T22:31:46.534Z,100826.28
2023-02-22T22:34:13.667Z,100811.84
2023-02-22T22:36:40.990Z,100812.38
2023-02-22T22:39:13.108Z,100815.81
2023-02-22T22:41:45.035Z,100818.34
2023-02-22T22:44:15.388Z,100822.84
2023-02-22T22:46:43.630Z,100797.25
2023-02-22T22:49:13.755Z,100812.78
2023-02-22T22:51:41.332Z,100812.69
2023-02-22T22:54:10.162Z,100816.84
2023-02-22T22:56:38.738Z,100807.84
2023-02-22T22:59:09.710Z,100815.06
2023-02-22T23:01:44.642Z,100821.38
2023-02-22T23:04:18.479Z,100813.66
2023-02-22T23:06:51.117Z,100820.38
2023-02-22T23:09:19.066Z,100812.19
2023-02-22T23:11:54.018Z,100812.84
2023-02-22T23:14:31.783Z,100823.75
2023-02-22T23:17:03.466Z,100823.44
2023-02-22T23:19:33.816Z,100817.13
2023-02-22T23:22:05.251Z,100821.13
2023-02-22T23:24:36.276Z,100814.94
2023-02-22T23:27:07.275Z,100821.56
2023-02-22T23:29:38.683Z,100825.63
2023-02-22T23:32:06.504Z,100818.50
2023-02-22T23:34:35.959Z,100810.19
2023-02-22T23:37:03.669Z,100816.31
2023-02-22T23:39:30.693Z,100809.88
2023-02-22T23:41:59.506Z,100808.63
2023-02-22T23:44:27.534Z,100807.38
2023-02-22T23:46:55.743Z,100792.66
2023-02-22T23:49:35.663Z,100796.03
2023-02-22T23:52:05.252Z,100810.47
2023-02-22T23:54:36.521Z,100802.03
2023-02-22T23:57:05.354Z,100799.47
2023-02-22T23:59:33.797Z,100807.53
